Time;durP1;ratioP1;P1;durP2;ratioP2;P2;SDS_P1;SDS_P2;PMS_P1;PMS_P2;Temp;Humidity;BMP_temperature;BMP_pressure;BME280_temperature;BME280_humidity;BME280_pressure;Samples;Min_cycle;Max_cycle;Signal;HPM_P1;HPM_P2
2022/09/11 00:00:13;;;;;;;4.90;2.70;;;14.40;99.90;;;13.50;100.00;97423.63;5061150;28;20484;-77
2022/09/11 00:02:39;;;;;;;6.28;2.95;;;14.30;99.90;;;13.49;100.00;97419.34;5062373;28;20407;-78
2022/09/11 00:05:06;;;;;;;8.13;3.22;;;14.30;99.90;;;13.49;100.00;97421.22;5062695;28;20407;-79
2022/09/11 00:07:31;;;;;;;6.53;2.80;;;14.30;99.90;;;13.55;100.00;97423.59;5061079;28;20401;-80
2022/09/11 00:09:57;;;;;;;7.25;3.63;;;14.40;99.90;;;13.56;100.00;97416.41;5062631;28;20892;-80
2022/09/11 00:12:23;;;;;;;5.82;2.35;;;14.40;99.90;;;13.47;100.00;97416.16;5062174;28;20496;-79
2022/09/11 00:14:50;;;;;;;6.30;2.80;;;14.30;99.90;;;13.52;100.00;97412.72;5060728;28;20431;-79
2022/09/11 00:17:17;;;;;;;6.10;2.80;;;14.40;99.90;;;13.52;100.00;97413.53;5062792;28;20454;-79
2022/09/11 00:19:43;;;;;;;5.15;2.63;;;14.40;99.90;;;13.59;100.00;97415.91;5062475;28;20898;-79
2022/09/11 00:22:10;;;;;;;6.63;2.42;;;14.40;99.90;;;13.64;100.00;97410.56;5060809;28;20410;-79
2022/09/11 00:24:36;;;;;;;4.75;2.50;;;14.50;99.90;;;13.58;100.00;97408.97;5061987;28;20404;-79
2022/09/11 00:27:02;;;;;;;7.55;2.70;;;14.40;99.90;;;13.61;100.00;97411.09;5062042;28;20400;-79
2022/09/11 00:29:28;;;;;;;7.87;2.70;;;14.50;99.90;;;13.70;100.00;97412.13;5060647;28;20413;-80
2022/09/11 00:31:56;;;;;;;7.40;2.60;;;14.50;99.90;;;13.68;100.00;97406.28;5058094;28;20420;-79
2022/09/11 00:34:23;;;;;;;6.32;2.50;;;14.50;99.90;;;13.59;100.00;97410.56;5061157;28;20396;-79
2022/09/11 00:36:50;;;;;;;6.45;2.45;;;14.40;99.90;;;13.56;100.00;97406.59;5062748;28;20851;-79
2022/09/11 00:39:16;;;;;;;4.97;2.45;;;14.40;99.90;;;13.53;100.00;97412.44;5060819;28;20421;-79
2022/09/11 00:41:45;;;;;;;7.22;2.67;;;14.40;99.90;;;13.60;100.00;97404.19;5061340;28;20415;-79
2022/09/11 00:44:59;;;;;;;4.38;2.10;;;14.40;99.90;;;13.61;100.00;97408.41;5059058;28;20539;-79
2022/09/11 00:47:25;;;;;;;4.93;2.30;;;14.40;99.90;;;13.55;100.00;97402.31;5060885;28;20394;-78
2022/09/11 00:49:55;;;;;;;4.70;2.50;;;14.40;99.90;;;13.55;100.00;97402.31;5060341;28;20398;-79
2022/09/11 00:52:27;;;;;;;8.10;2.63;;;14.40;99.90;;;13.68;100.00;97408.94;5061070;28;20419;-79
2022/09/11 00:54:58;;;;;;;7.47;2.30;;;14.40;99.90;;;13.65;100.00;97408.69;5061952;28;20403;-79
2022/09/11 00:57:31;;;;;;;5.97;2.40;;;14.40;99.90;;;13.66;100.00;97403.13;5061724;28;20546;-79
2022/09/11 00:59:59;;;;;;;7.05;2.20;;;14.50;99.90;;;13.56;100.00;97409.25;5057820;28;20805;-79
2022/09/11 01:02:29;;;;;;;5.67;2.20;;;14.40;99.90;;;13.57;100.00;97405.53;5060378;28;20413;-78
2022/09/11 01:04:58;;;;;;;5.18;2.33;;;14.40;99.90;;;13.60;100.00;97411.38;5056329;28;20395;-78
2022/09/11 01:07:25;;;;;;;3.70;2.20;;;14.40;99.90;;;13.51;100.00;97413.78;5060409;28;20540;-78
2022/09/11 01:09:52;;;;;;;6.00;2.60;;;14.30;99.90;;;13.58;100.00;97408.97;5062802;28;20396;-79
2022/09/11 01:12:28;;;;;;;5.97;2.20;;;14.40;99.90;;;13.66;100.00;97404.97;5060332;28;20408;-78
2022/09/11 01:15:02;;;;;;;6.70;2.47;;;14.50;99.90;;;13.63;100.00;97400.19;5056778;28;20417;-78
2022/09/11 01:17:39;;;;;;;16.02;2.40;;;14.40;99.90;;;13.54;100.00;97397.25;5058663;28;20401;-78
2022/09/11 01:20:25;;;;;;;5.53;2.38;;;14.40;99.90;;;13.56;100.00;97400.47;5060141;28;20390;-79
2022/09/11 01:23:10;;;;;;;5.65;2.65;;;14.40;99.90;;;13.62;100.00;97399.38;5060874;28;20757;-79
2022/09/11 01:26:00;;;;;;;5.07;2.33;;;14.50;99.90;;;13.51;100.00;97405.81;5057637;28;20401;-78
2022/09/11 01:28:35;;;;;;;4.53;2.20;;;14.40;99.90;;;13.59;100.00;97404.47;5060147;28;20404;-79
2022/09/11 01:31:08;;;;;;;5.50;2.28;;;14.40;99.90;;;13.65;100.00;97411.34;5040028;28;20407;-79
2022/09/11 01:33:41;;;;;;;7.22;2.20;;;14.50;99.90;;;13.64;100.00;97420.41;5058194;28;20476;-79
2022/09/11 01:36:16;;;;;;;7.00;2.47;;;14.50;99.90;;;13.63;100.00;97414.28;5061320;28;20404;-79
2022/09/11 01:38:49;;;;;;;4.68;2.40;;;14.50;99.90;;;13.62;100.00;97411.88;5058895;28;20950;-78
2022/09/11 01:41:20;;;;;;;3.97;2.30;;;14.40;99.90;;;13.79;100.00;97415.03;5056521;28;20417;-77
2022/09/11 01:43:55;;;;;;;4.95;2.25;;;14.60;99.90;;;13.83;100.00;97413.44;5059235;28;20400;-79
2022/09/11 01:46:25;;;;;;;7.50;2.50;;;14.60;99.90;;;13.84;100.00;97409.69;5058662;28;20408;-78
2022/09/11 01:49:00;;;;;;;6.60;2.40;;;14.60;99.90;;;13.79;100.00;97405.19;5059162;28;20393;-79
2022/09/11 01:51:30;;;;;;;6.60;2.40;;;14.60;99.90;;;13.72;100.00;97399.38;5059491;28;20420;-79
2022/09/11 01:53:58;;;;;;;6.22;2.40;;;14.60;99.90;;;13.64;100.00;97407.91;5056330;28;20838;-78
2022/09/11 01:56:33;;;;;;;4.93;2.40;;;14.50;99.90;;;13.72;100.00;97406.53;5059681;28;20483;-79
2022/09/11 01:59:05;;;;;;;5.33;2.43;;;14.50;99.90;;;13.67;100.00;97407.38;5057264;28;20474;-78
2022/09/11 02:01:41;;;;;;;5.60;2.55;;;14.50;99.90;;;13.72;100.00;97412.66;5058787;28;20388;-79
2022/09/11 02:04:14;;;;;;;6.60;2.30;;;14.50;99.90;;;13.67;100.00;97409.22;5059761;28;20895;-78
2022/09/11 02:06:47;;;;;;;5.80;2.50;;;14.50;99.90;;;13.67;100.00;97410.03;5057794;28;20401;-79
2022/09/11 02:09:19;;;;;;;5.55;2.53;;;14.50;99.90;;;13.64;100.00;97413.22;5058747;28;20399;-79
2022/09/11 02:11:48;;;;;;;7.38;2.78;;;14.50;99.90;;;13.65;100.00;97412.16;5061216;22;20463;-76
2022/09/11 02:14:23;;;;;;;6.35;2.65;;;14.50;99.90;;;13.68;100.00;97413.47;5037000;28;20461;-78
2022/09/11 02:16:54;;;;;;;5.25;2.60;;;14.50;99.90;;;13.74;100.00;97410.53;5038204;28;20401;-78
2022/09/11 02:19:26;;;;;;;6.00;2.40;;;14.50;99.90;;;13.72;100.00;97409.22;5037730;28;20400;-78
2022/09/11 02:21:52;;;;;;;4.43;2.80;;;14.50;99.90;;;13.72;100.00;97411.88;5027814;28;20395;-78
2022/09/11 02:24:21;;;;;;;4.85;2.78;;;14.50;99.90;;;13.73;100.00;97421.44;5017754;28;20454;-77
2022/09/11 02:26:53;;;;;;;4.80;2.85;;;14.50;99.90;;;13.80;100.00;97422.75;5020498;28;20401;-78
2022/09/11 02:29:20;;;;;;;5.22;2.58;;;14.60;99.90;;;13.70;100.00;97424.63;5017239;28;20431;-78
2022/09/11 02:31:47;;;;;;;4.38;2.72;;;14.60;99.90;;;13.70;100.00;97419.31;5018969;28;20427;-78
2022/09/11 02:34:16;;;;;;;4.63;2.70;;;14.50;99.90;;;13.68;100.00;97424.13;5020199;28;20406;-76
2022/09/11 02:37:13;;;;;;;6.30;3.17;;;14.50;99.90;;;13.66;100.00;97427.06;5019770;28;20538;-78
2022/09/11 02:40:03;;;;;;;7.63;2.80;;;14.50;99.90;;;13.70;100.00;97420.09;5017074;28;20410;-76
2022/09/11 02:42:46;;;;;;;8.73;3.03;;;14.60;99.90;;;13.80;100.00;97429.94;5019816;28;20491;-78
2022/09/11 02:45:31;;;;;;;5.65;2.95;;;14.60;99.90;;;13.92;100.00;97433.09;5020425;28;20458;-78
2022/09/11 02:48:24;;;;;;;5.63;2.50;;;14.60;99.90;;;13.81;100.00;97440.31;5018950;28;20406;-77
2022/09/11 02:50:58;;;;;;;4.40;2.60;;;14.70;99.90;;;13.81;100.00;97439.53;5016817;28;20469;-78
2022/09/11 02:53:34;;;;;;;4.22;2.60;;;14.60;99.90;;;13.73;100.00;97435.53;5020597;28;20444;-78
2022/09/11 02:56:11;;;;;;;6.28;2.92;;;14.60;99.90;;;13.72;100.00;97441.13;5021207;28;20420;-78
2022/09/11 02:58:45;;;;;;;6.60;3.17;;;14.60;99.90;;;13.76;100.00;97442.16;5020824;28;20401;-79
2022/09/11 03:01:13;;;;;;;7.07;3.03;;;14.60;99.90;;;13.75;100.00;97440.59;5021051;28;20393;-78
2022/09/11 03:03:40;;;;;;;7.38;2.97;;;14.60;99.90;;;13.76;100.00;97437.66;5022875;28;20880;-76
2022/09/11 03:06:11;;;;;;;5.18;2.85;;;14.60;99.90;;;13.95;100.00;97444.00;5022628;28;20426;-78
2022/09/11 03:08:37;;;;;;;5.57;2.90;;;14.70;99.90;;;14.01;100.00;97444.78;5020298;28;20405;-77
2022/09/11 03:11:03;;;;;;;6.27;2.90;;;14.80;99.90;;;13.98;100.00;97436.56;5023119;28;20410;-78
2022/09/11 03:13:30;;;;;;;7.97;2.80;;;14.80;99.90;;;13.97;100.00;97440.28;5023795;28;20419;-78
2022/09/11 03:15:55;;;;;;;4.90;2.80;;;14.80;99.90;;;13.99;100.00;97433.59;5019715;28;20786;-76
2022/09/11 03:18:23;;;;;;;8.30;3.65;;;14.80;99.90;;;13.97;100.00;97435.75;5023428;28;20410;-78
2022/09/11 03:20:50;;;;;;;4.32;3.20;;;14.80;99.90;;;13.96;100.00;97439.47;5023911;28;20401;-78
2022/09/11 03:23:16;;;;;;;6.57;3.42;;;14.80;99.90;;;13.88;100.00;97426.72;5019104;28;20762;-75
2022/09/11 03:25:42;;;;;;;8.90;3.70;;;14.70;99.90;;;13.89;100.00;97438.97;5023034;28;20414;-77
2022/09/11 03:28:09;;;;;;;11.10;4.40;;;14.70;99.90;;;13.92;100.00;97439.22;5013153;28;20782;-78
2022/09/11 03:30:35;;;;;;;7.78;3.50;;;14.70;99.90;;;13.99;100.00;97441.56;5013026;28;20454;-78
2022/09/11 03:33:01;;;;;;;7.40;4.00;;;14.80;99.90;;;14.05;100.00;97435.19;5021954;28;20415;-77
2022/09/11 03:35:29;;;;;;;7.25;3.95;;;14.80;99.90;;;14.05;100.00;97437.84;5020681;28;20409;-77
2022/09/11 03:37:55;;;;;;;6.72;3.72;;;14.90;99.90;;;14.03;100.00;97434.66;5023296;28;20515;-78
2022/09/11 03:40:22;;;;;;;5.43;3.70;;;14.90;99.90;;;13.97;100.00;97443.72;5022341;28;20402;-77
2022/09/11 03:42:48;;;;;;;6.10;4.07;;;14.80;99.90;;;13.98;100.00;97445.34;5022723;28;20862;-77
2022/09/11 03:45:14;;;;;;;7.63;4.22;;;14.80;99.90;;;14.00;100.00;97440.50;5021717;28;20490;-77
2022/09/11 03:47:40;;;;;;;7.00;4.10;;;14.80;99.90;;;13.95;100.00;97446.66;5023110;28;20415;-77
2022/09/11 03:50:08;;;;;;;7.03;3.90;;;14.80;99.90;;;13.93;100.00;97450.66;5023007;28;20812;-77
2022/09/11 03:52:35;;;;;;;6.15;3.92;;;14.80;99.90;;;13.93;100.00;97454.13;5021230;28;20452;-77
2022/09/11 03:55:01;;;;;;;5.80;4.40;;;14.70;99.90;;;14.13;100.00;97452.47;5004707;28;20415;-77
2022/09/11 03:57:27;;;;;;;11.00;4.65;;;14.90;99.90;;;14.04;100.00;97446.09;5012476;28;20415;-77
2022/09/11 03:59:55;;;;;;;9.23;4.63;;;14.90;99.90;;;14.03;100.00;97453.28;5023463;28;20765;-77
2022/09/11 04:02:22;;;;;;;9.60;5.10;;;14.80;99.90;;;14.08;100.00;97453.25;5021836;28;20723;-78
2022/09/11 04:04:48;;;;;;;9.07;4.85;;;14.90;99.90;;;14.12;100.00;97442.88;5020896;28;20407;-78
2022/09/11 04:07:14;;;;;;;8.13;4.70;;;14.90;99.90;;;14.08;100.00;97447.16;5023341;28;20953;-78
2022/09/11 04:09:41;;;;;;;10.47;5.20;;;14.90;99.90;;;14.04;100.00;97444.25;5022035;28;20408;-78
2022/09/11 04:12:07;;;;;;;10.27;5.45;;;14.90;99.90;;;14.16;100.00;97439.41;5021361;28;20467;-78
2022/09/11 04:14:33;;;;;;;12.30;5.70;;;14.90;99.90;;;14.02;100.00;97438.38;5022695;28;20407;-78
2022/09/11 04:16:59;;;;;;;8.93;5.47;;;14.80;99.90;;;14.06;100.00;97434.09;5021559;28;20428;-78
2022/09/11 04:19:25;;;;;;;8.10;5.80;;;14.90;99.90;;;14.01;100.00;97438.66;5021864;28;20867;-77
2022/09/11 04:21:51;;;;;;;10.02;5.72;;;14.80;99.90;;;14.12;100.00;97454.34;5012001;28;20409;-77
2022/09/11 04:24:17;;;;;;;8.27;5.63;;;14.80;99.90;;;14.01;100.00;97455.41;5020819;28;20396;-77
2022/09/11 04:26:45;;;;;;;13.65;6.78;;;14.80;99.90;;;14.04;100.00;97451.44;5022039;28;20449;-78
2022/09/11 04:29:11;;;;;;;10.52;6.30;;;14.90;99.90;;;14.06;100.00;97459.94;5022991;28;20431;-78
2022/09/11 04:31:38;;;;;;;11.43;6.40;;;14.80;99.90;;;14.00;100.00;97455.69;5011784;28;20405;-78
2022/09/11 04:34:05;;;;;;;7.45;5.82;;;14.80;99.90;;;13.99;100.00;97457.53;5021388;28;20423;-78
2022/09/11 04:36:31;;;;;;;11.75;6.82;;;14.80;99.90;;;14.05;100.00;97455.69;5020702;28;20479;-78
2022/09/11 04:38:59;;;;;;;11.68;6.47;;;14.80;99.90;;;13.99;100.00;97454.88;5022673;28;20406;-78
2022/09/11 04:41:26;;;;;;;10.77;5.88;;;14.80;99.90;;;14.02;100.00;97462.34;5011851;28;20585;-78
2022/09/11 04:43:56;;;;;;;12.27;6.68;;;14.80;99.90;;;13.91;100.00;97461.56;5022163;28;20808;-78
2022/09/11 04:46:23;;;;;;;12.27;7.28;;;14.80;99.90;;;13.96;100.00;97466.09;5021316;28;20862;-77
2022/09/11 04:48:52;;;;;;;15.37;7.47;;;14.70;99.90;;;13.92;100.00;97473.00;5020769;28;20404;-78
2022/09/11 04:51:22;;;;;;;9.70;6.93;;;14.80;99.90;;;13.97;100.00;97483.66;5018380;28;20409;-78
2022/09/11 04:53:48;;;;;;;12.18;7.00;;;14.80;99.90;;;13.94;100.00;97482.31;5020271;28;20423;-78
2022/09/11 04:56:15;;;;;;;15.38;7.40;;;14.70;99.90;;;14.04;100.00;97481.50;5020553;28;20407;-78
2022/09/11 04:58:41;;;;;;;11.40;8.07;;;14.80;99.90;;;14.06;100.00;97481.25;5004734;28;21078;-78
2022/09/11 05:01:12;;;;;;;10.60;6.70;;;14.90;99.90;;;14.02;100.00;97496.13;5017809;28;20774;-78
2022/09/11 05:03:38;;;;;;;10.45;6.82;;;14.90;99.90;;;14.07;100.00;97496.13;5020380;28;20718;-78
2022/09/11 05:06:05;;;;;;;12.10;7.00;;;14.80;99.90;;;14.12;100.00;97502.25;5011363;28;20498;-78
2022/09/11 05:08:32;;;;;;;10.32;6.88;;;14.90;99.90;;;14.09;100.00;97499.31;5020548;28;20416;-78
2022/09/11 05:10:58;;;;;;;11.80;7.72;;;14.90;99.90;;;14.09;100.00;97501.97;5020429;28;20494;-79
2022/09/11 05:13:25;;;;;;;12.95;6.72;;;14.90;99.90;;;14.10;100.00;97507.03;5010589;28;21016;-78
2022/09/11 05:15:50;;;;;;;14.90;7.45;;;14.90;99.90;;;14.09;100.00;97510.75;5010417;28;20427;-79
2022/09/11 05:18:18;;;;;;;12.50;7.43;;;14.90;99.90;;;14.14;100.00;97510.75;4993517;28;20492;-79
2022/09/11 05:20:44;;;;;;;11.35;6.97;;;14.90;99.90;;;14.15;100.00;97515.00;5021984;28;20407;-78
2022/09/11 05:23:10;;;;;;;10.13;7.28;;;14.90;99.90;;;14.20;100.00;97514.22;5010276;28;20401;-79
2022/09/11 05:25:36;;;;;;;10.32;6.93;;;15.00;99.90;;;14.22;100.00;97515.50;5021026;28;20433;-78
2022/09/11 05:28:03;;;;;;;9.23;6.93;;;15.00;99.90;;;14.13;100.00;97521.69;5019527;28;20408;-75
2022/09/11 05:30:29;;;;;;;12.07;7.20;;;15.00;99.90;;;14.11;100.00;97523.81;5017968;28;20420;-74
2022/09/11 05:32:55;;;;;;;12.55;7.13;;;14.90;99.90;;;14.14;100.00;97526.72;5014050;28;20988;-72
2022/09/11 05:35:24;;;;;;;11.23;7.32;;;14.90;99.90;;;14.16;100.00;97521.13;5021133;28;20408;-74
2022/09/11 05:37:49;;;;;;;10.95;6.80;;;15.00;99.90;;;14.15;100.00;97532.84;5017725;28;20411;-74
2022/09/11 05:40:16;;;;;;;14.30;7.15;;;14.90;99.90;;;14.04;100.00;97521.44;5018364;28;20439;-75
2022/09/11 05:42:42;;;;;;;8.40;7.07;;;14.90;99.90;;;14.11;100.00;97535.25;5019049;28;20773;-76
2022/09/11 05:45:08;;;;;;;8.77;6.60;;;14.90;99.90;;;14.11;100.00;97537.91;5010431;28;20439;-76
2022/09/11 05:47:34;;;;;;;10.88;7.22;;;14.90;99.90;;;14.11;100.00;97535.25;5020382;28;20405;-79
2022/09/11 05:50:00;;;;;;;14.63;7.85;;;14.90;99.90;;;14.11;100.00;97542.44;5028351;28;20501;-78
2022/09/11 05:52:29;;;;;;;10.00;7.45;;;14.90;99.90;;;14.13;100.00;97546.44;5024281;28;20419;-77
2022/09/11 05:54:55;;;;;;;13.35;8.07;;;14.90;99.90;;;14.23;100.00;97548.25;5018817;28;20765;-75
2022/09/11 05:57:21;;;;;;;11.48;7.60;;;15.00;99.90;;;14.30;100.00;97551.44;5020893;28;20457;-76
2022/09/11 05:59:47;;;;;;;12.48;7.82;;;15.00;99.90;;;14.24;100.00;97555.19;5028678;28;20975;-77
2022/09/11 06:02:13;;;;;;;9.75;7.70;;;15.00;99.90;;;14.22;100.00;97554.66;5030526;28;20406;-77
2022/09/11 06:04:39;;;;;;;11.63;7.80;;;15.00;99.90;;;14.26;100.00;97537.09;5029829;28;20410;-77
2022/09/11 06:07:05;;;;;;;10.93;7.50;;;15.00;99.90;;;14.27;100.00;97559.97;5030408;28;20767;-77
2022/09/11 06:09:32;;;;;;;12.57;8.27;;;15.10;99.90;;;14.27;100.00;97557.31;5007486;28;20418;-77
2022/09/11 06:11:59;;;;;;;13.65;7.88;;;15.10;99.90;;;14.22;100.00;97568.75;5010028;28;20495;-76
2022/09/11 06:14:25;;;;;;;12.98;8.60;;;15.00;99.90;;;14.26;100.00;97561.03;5009017;28;20949;-77
2022/09/11 06:16:53;;;;;;;14.23;8.68;;;15.00;99.90;;;14.30;100.00;97562.09;5010189;28;20495;-77
2022/09/11 06:19:19;;;;;;;10.20;8.02;;;15.10;99.90;;;14.28;100.00;97570.34;5008230;28;20400;-77
2022/09/11 06:21:45;;;;;;;13.00;8.93;;;15.10;99.90;;;14.32;100.00;97567.94;5006793;28;20405;-77
2022/09/11 06:24:11;;;;;;;13.95;8.02;;;15.20;99.90;;;14.31;100.00;97577.00;5006575;28;20393;-78
2022/09/11 06:26:38;;;;;;;14.90;8.87;;;15.10;99.90;;;14.31;100.00;97575.13;5002164;28;20414;-76
2022/09/11 06:29:04;;;;;;;10.73;8.23;;;15.10;99.90;;;14.33;100.00;97575.69;5002264;28;20397;-77
2022/09/11 06:31:30;;;;;;;11.80;8.27;;;15.10;99.90;;;14.34;100.00;97584.47;5003901;28;20886;-78
2022/09/11 06:33:56;;;;;;;13.82;9.00;;;15.10;99.90;;;14.37;100.00;97586.56;5003745;28;20416;-75
2022/09/11 06:36:28;;;;;;;15.50;8.83;;;15.20;99.90;;;14.36;100.00;97589.53;5008736;28;20463;-77
2022/09/11 06:38:56;;;;;;;12.73;8.88;;;15.10;99.90;;;14.47;100.00;97594.56;4998998;28;20412;-77
2022/09/11 06:41:23;;;;;;;12.95;8.18;;;15.20;99.90;;;14.41;100.00;97603.66;5002463;28;20901;-77
2022/09/11 06:43:51;;;;;;;13.52;8.07;;;15.20;99.90;;;14.42;100.00;97599.13;4989547;28;20401;-77
2022/09/11 06:46:19;;;;;;;11.85;8.10;;;15.20;99.90;;;14.43;100.00;97603.38;5001746;28;20402;-77
2022/09/11 06:48:48;;;;;;;16.65;8.63;;;15.20;99.90;;;14.45;100.00;97611.88;5002379;28;20436;-78
2022/09/11 06:51:16;;;;;;;13.60;9.48;;;15.20;99.90;;;14.46;100.00;97605.50;5010432;28;20488;-78
2022/09/11 06:53:43;;;;;;;13.32;8.57;;;15.20;99.90;;;14.52;100.00;97607.88;5006691;28;20867;-76
2022/09/11 06:56:13;;;;;;;11.77;8.83;;;15.30;99.90;;;14.53;100.00;97598.00;5008780;28;20452;-76
2022/09/11 06:58:40;;;;;;;12.15;8.30;;;15.30;99.90;;;14.54;100.00;97597.75;5003202;28;20879;-76
2022/09/11 07:01:10;;;;;;;11.77;8.48;;;15.30;99.90;;;14.53;100.00;97592.69;5005384;28;20482;-75
2022/09/11 07:03:36;;;;;;;14.27;9.70;;;15.30;99.90;;;14.70;100.00;97606.50;5005484;28;20405;-75
2022/09/11 07:06:02;;;;;;;14.88;9.10;;;15.40;99.90;;;14.75;100.00;97601.13;5007960;28;20918;-75
2022/09/11 07:08:28;;;;;;;12.60;8.50;;;15.50;99.90;;;14.69;100.00;97604.91;5007284;28;20498;-76
2022/09/11 07:11:01;;;;;;;10.82;7.95;;;15.50;99.90;;;14.67;100.00;97601.69;5004437;28;20412;-76
2022/09/11 07:13:28;;;;;;;12.40;8.95;;;15.50;99.90;;;14.71;100.00;97606.22;5005815;28;20429;-76
2022/09/11 07:15:59;;;;;;;13.80;8.77;;;15.50;99.90;;;14.73;100.00;97607.84;5018933;28;20426;-76
2022/09/11 07:18:32;;;;;;;11.40;8.65;;;15.50;99.90;;;14.75;100.00;97608.34;5010262;28;20412;-76
2022/09/11 07:20:59;;;;;;;11.00;8.23;;;15.50;99.90;;;14.78;100.00;97605.94;5008403;28;20443;-76
2022/09/11 07:23:24;;;;;;;14.35;8.07;;;15.60;99.90;;;14.82;100.00;97606.16;5007995;28;20400;-74
2022/09/11 07:25:52;;;;;;;13.20;8.43;;;15.60;99.90;;;14.96;100.00;97605.31;5006443;28;20449;-73
2022/09/11 07:28:18;;;;;;;12.93;8.48;;;15.70;99.90;;;15.02;100.00;97606.91;5003638;28;20795;-74
2022/09/11 07:30:44;;;;;;;13.68;8.07;;;15.80;99.90;;;15.06;100.00;97613.28;5002747;28;20427;-74
2022/09/11 07:33:10;;;;;;;12.43;7.85;;;15.80;99.90;;;15.15;100.00;97613.50;5001467;28;20419;-73
2022/09/11 07:35:37;;;;;;;12.15;9.05;;;15.90;99.90;;;15.15;100.00;97608.16;5006847;28;20403;-73
2022/09/11 07:38:03;;;;;;;11.15;8.38;;;15.90;99.90;;;15.18;100.00;97615.63;5010116;28;20503;-74
2022/09/11 07:40:30;;;;;;;11.20;8.40;;;15.90;99.90;;;15.19;100.00;97613.75;5007747;28;20516;-74
2022/09/11 07:42:56;;;;;;;11.25;8.35;;;15.90;99.90;;;15.24;100.00;97616.41;5011413;28;20408;-75
2022/09/11 07:45:22;;;;;;;11.47;8.73;;;16.00;99.90;;;15.24;100.00;97621.72;5013494;28;20423;-77
2022/09/11 07:47:48;;;;;;;12.23;8.23;;;16.00;99.90;;;15.28;100.00;97630.75;5013458;28;20483;-80
2022/09/11 07:50:14;;;;;;;12.52;8.00;;;16.00;99.90;;;15.33;100.00;97622.75;5013472;28;20447;-78
2022/09/11 07:52:42;;;;;;;11.77;7.63;;;16.10;99.90;;;15.43;100.00;97633.34;5012325;28;20936;-77
2022/09/11 07:55:08;;;;;;;8.90;7.50;;;16.20;99.90;;;15.48;100.00;97642.16;5005901;28;20564;-79
2022/09/11 07:57:34;;;;;;;10.75;7.72;;;16.20;99.90;;;15.54;100.00;97634.13;5008712;28;20424;-74
2022/09/11 08:00:00;;;;;;;12.32;8.82;;;16.30;99.90;;;15.57;100.00;97642.38;5006357;28;20405;-81
2022/09/11 08:02:26;;;;;;;12.33;8.20;;;16.30;99.90;;;15.62;100.00;97634.34;5004342;28;20533;-82
2022/09/11 08:04:52;;;;;;;11.82;7.97;;;16.40;99.90;;;15.68;100.00;97635.91;5005779;28;20829;-75
2022/09/11 08:07:18;;;;;;;10.70;7.70;;;16.40;99.90;;;15.67;100.00;97633.50;5006027;28;20890;-78
2022/09/11 08:09:45;;;;;;;10.27;7.65;;;16.40;99.90;;;15.68;100.00;97643.09;5004025;28;20406;-75
2022/09/11 08:12:11;;;;;;;11.93;8.13;;;16.40;99.90;;;15.74;100.00;97647.31;5044345;22;20524;-73
2022/09/11 08:14:37;;;;;;;10.55;7.57;;;16.50;99.90;;;15.77;100.00;97650.25;5049947;28;20424;-74
2022/09/11 08:17:03;;;;;;;12.93;7.97;;;16.50;99.90;;;15.88;100.00;97654.44;5048029;28;20886;-76
2022/09/11 08:19:29;;;;;;;9.70;8.15;;;16.50;99.90;;;15.94;100.00;97651.75;5049595;28;20441;-76
2022/09/11 08:21:55;;;;;;;14.07;9.18;;;16.60;99.90;;;15.97;100.00;97651.97;5039096;28;20441;-76
2022/09/11 08:24:21;;;;;;;14.33;8.77;;;16.70;99.90;;;15.98;100.00;97647.44;5028685;28;20909;-76
2022/09/11 08:26:49;;;;;;;10.68;7.25;;;16.70;99.90;;;16.09;100.00;97656.94;5027699;28;20418;-74
2022/09/11 08:29:17;;;;;;;12.15;8.13;;;16.70;99.90;;;16.09;99.99;97654.25;5026210;28;20414;-75
2022/09/11 08:31:44;;;;;;;12.82;8.60;;;16.80;99.90;;;16.27;100.00;97654.38;5028755;28;20544;-75
2022/09/11 08:34:10;;;;;;;13.23;8.82;;;16.90;99.90;;;16.32;99.99;97656.22;5030282;28;20423;-74
2022/09/11 08:36:36;;;;;;;9.88;7.75;;;17.00;99.90;;;16.25;99.57;97653.88;5030784;28;20884;-75
2022/09/11 08:39:02;;;;;;;10.27;8.10;;;17.00;99.90;;;16.29;99.67;97662.13;5030367;28;21024;-75
2022/09/11 08:41:40;;;;;;;8.35;7.10;;;17.00;99.90;;;16.24;100.00;97657.59;5030206;28;20487;-76
2022/09/11 08:44:16;;;;;;;14.73;8.30;;;17.00;99.90;;;16.21;100.00;97657.38;5029632;28;20896;-75
2022/09/11 08:46:47;;;;;;;11.50;8.15;;;16.90;99.90;;;16.16;100.00;97660.88;5030299;28;20422;-75
2022/09/11 08:49:20;;;;;;;9.02;7.85;;;16.90;99.90;;;16.11;100.00;97674.28;5028830;28;20486;-75
2022/09/11 08:51:48;;;;;;;10.25;8.13;;;16.80;99.90;;;16.07;100.00;97673.25;5027361;28;20395;-75
2022/09/11 08:54:26;;;;;;;11.23;7.78;;;16.80;99.90;;;16.00;100.00;97659.44;5030239;28;20427;-74
2022/09/11 08:57:00;;;;;;;10.02;7.07;;;16.80;99.90;;;15.97;100.00;97664.53;5029878;28;20442;-74
2022/09/11 08:59:44;;;;;;;9.90;7.95;;;16.70;99.90;;;15.95;100.00;97662.13;5028536;28;20439;-75
2022/09/11 09:02:30;;;;;;;10.83;7.67;;;16.70;99.90;;;16.00;99.82;97656.75;5028260;28;20395;-75
2022/09/11 09:05:15;;;;;;;7.95;6.57;;;16.70;99.90;;;16.15;100.00;97659.31;5029302;28;20399;-76
2022/09/11 09:08:00;;;;;;;9.60;6.90;;;16.80;99.90;;;16.37;100.00;97658.84;5030499;28;20407;-76
2022/09/11 09:10:41;;;;;;;9.48;6.90;;;17.00;99.90;;;16.60;100.00;97666.16;5028578;28;20397;-75
2022/09/11 09:13:34;;;;;;;9.75;6.57;;;17.30;99.90;;;16.78;99.95;97663.81;5025970;28;20491;-75
2022/09/11 09:16:20;;;;;;;9.50;5.95;;;17.50;99.90;;;16.92;95.55;97665.50;5024703;28;20797;-75
2022/09/11 09:18:49;;;;;;;9.33;5.60;;;17.60;99.90;;;17.16;91.53;97662.84;5025488;28;20470;-75
2022/09/11 09:21:23;;;;;;;9.37;5.70;;;17.80;99.90;;;17.20;89.32;97668.41;5028060;28;20602;-75
2022/09/11 09:23:54;;;;;;;8.43;5.80;;;17.90;99.90;;;17.22;88.85;97669.72;5024719;28;20448;-75
2022/09/11 09:26:21;;;;;;;7.32;5.90;;;17.90;99.90;;;17.26;90.19;97673.41;5025214;28;21023;-75
2022/09/11 09:28:51;;;;;;;6.65;5.90;;;17.90;99.90;;;17.33;92.11;97673.06;5030484;28;20409;-75
2022/09/11 09:31:20;;;;;;;14.07;6.70;;;18.00;99.90;;;17.45;91.46;97675.31;5030112;28;20415;-75
2022/09/11 09:33:53;;;;;;;9.50;6.50;;;18.10;99.90;;;17.58;89.99;97674.63;5025848;28;20492;-75
2022/09/11 09:36:27;;;;;;;10.05;6.05;;;18.20;99.90;;;17.48;86.13;97680.09;5011851;28;20921;-75
2022/09/11 09:38:53;;;;;;;9.07;6.55;;;18.10;99.90;;;17.52;86.58;97683.78;5029823;28;20409;-74
2022/09/11 09:41:57;;;;;;;9.35;6.05;;;18.20;99.90;;;17.37;87.34;97680.22;5029838;28;20403;-78
2022/09/11 09:44:40;;;;;;;9.43;6.88;;;18.10;99.90;;;17.24;87.71;97693.50;5026379;28;20419;-78
2022/09/11 09:47:11;;;;;;;9.05;6.35;;;18.00;99.90;;;17.16;88.99;97683.44;5030098;28;20402;-80
2022/09/11 09:49:37;;;;;;;9.30;7.25;;;17.90;99.90;;;17.10;88.15;97681.91;5011643;28;20486;-76
2022/09/11 09:52:17;;;;;;;7.70;6.20;;;17.80;99.90;;;17.11;90.19;97681.63;5029180;28;20399;-76
2022/09/11 09:54:50;;;;;;;9.50;6.15;;;17.80;99.90;;;17.15;92.62;97679.16;5028644;28;20887;-76
2022/09/11 09:57:17;;;;;;;9.30;6.15;;;17.80;99.90;;;17.14;91.37;97670.34;5028944;28;20888;-76
2022/09/11 09:59:50;;;;;;;10.02;6.45;;;17.80;99.90;;;17.25;92.08;97681.72;5029641;28;20403;-75
2022/09/11 10:02:38;;;;;;;8.60;5.70;;;17.90;99.90;;;17.37;93.14;97674.06;5024607;28;20593;-75
2022/09/11 10:05:19;;;;;;;9.38;6.80;;;18.00;99.90;;;17.40;92.63;97676.97;5028453;28;20427;-76
2022/09/11 10:07:48;;;;;;;12.20;7.70;;;18.10;99.90;;;17.46;92.31;97671.56;5029216;28;20406;-77
2022/09/11 10:10:26;;;;;;;11.35;6.72;;;18.10;99.90;;;17.50;91.80;97672.59;5029737;28;20399;-79
2022/09/11 10:12:54;;;;;;;10.80;6.50;;;18.10;99.90;;;17.49;90.51;97665.63;5026912;28;20888;-77
2022/09/11 10:15:23;;;;;;;8.82;6.25;;;18.10;99.90;;;17.65;91.22;97667.06;5030338;28;20760;-82
2022/09/11 10:17:52;;;;;;;9.87;6.93;;;18.20;99.90;;;17.59;90.78;97671.63;5028277;28;20914;-90
2022/09/11 10:20:25;;;;;;;10.45;7.22;;;18.20;99.90;;;17.60;89.29;97680.47;5031089;28;20487;-94